Reily, Ohio
Current Conditions -  °F | °C
As of 6:55 PM on Saturday 25 Oct 2014 (Local Time) from KI67 Reporting Station
Clear Clear  
Wind Chill: 70°   Ceiling: Unl
Heat Index: 70°   Visibility: 10mi
Dew Point: 50°   Wind: 5mph
Humidity: 49%   Direction: 240°WSW
Pressure: 29.91"   Gusts: NA
Location:  39.4851°N, 84.7501°W
Report Text: KI67 252255Z AUTO 24004KT 10SM CLR 21/10 A2991 RMK AO1
Loading
Personal Weather Stations






























Interactive Weather Map New forecast layout! Learn more

10-Day Weather Forecast

Advertisements
Track Severe Weather on mobile